createdAt,value
2023-03-29T12:02:13.543Z,100840.19
2023-03-29T12:04:53.155Z,100844.06
2023-03-29T12:07:33.754Z,100841.56
2023-03-29T12:10:14.776Z,100841.03
2023-03-29T12:12:53.880Z,100830.72
2023-03-29T12:15:32.014Z,100825.28
2023-03-29T12:18:16.737Z,100824.44
2023-03-29T12:20:53.701Z,100818.91
2023-03-29T12:23:25.474Z,100821.84
2023-03-29T12:26:13.021Z,100818.53
2023-03-29T12:29:30.256Z,100809.00
2023-03-29T12:32:19.457Z,100811.53
2023-03-29T12:35:15.235Z,100802.22
2023-03-29T12:38:01.878Z,100796.91
2023-03-29T12:40:44.960Z,100796.25
2023-03-29T12:43:28.763Z,100801.94
2023-03-29T12:46:07.413Z,100789.19
2023-03-29T12:48:42.522Z,100789.53
2023-03-29T12:51:20.605Z,100795.94
2023-03-29T12:53:55.817Z,100797.69
2023-03-29T12:56:41.358Z,100803.56
2023-03-29T12:59:37.148Z,100792.66
2023-03-29T13:02:37.484Z,100791.66
2023-03-29T13:05:33.597Z,100795.38
2023-03-29T13:08:23.199Z,100785.38
2023-03-29T13:10:59.051Z,100790.72
2023-03-29T13:13:38.910Z,100788.56
2023-03-29T13:16:20.435Z,100791.44
2023-03-29T13:19:14.788Z,100791.44
2023-03-29T13:22:01.284Z,100784.41
2023-03-29T13:25:01.202Z,100781.91
2023-03-29T13:27:46.245Z,100789.59
2023-03-29T13:30:45.409Z,100788.03
2023-03-29T13:33:48.995Z,100787.25
2023-03-29T13:36:35.573Z,100780.16
2023-03-29T13:39:22.017Z,100783.16
2023-03-29T13:42:07.044Z,100778.97
2023-03-29T13:44:48.849Z,100779.22
2023-03-29T13:47:43.109Z,100775.22
2023-03-29T13:50:21.897Z,100772.88
2023-03-29T13:53:07.432Z,100771.19
2023-03-29T13:55:48.449Z,100775.50
2023-03-29T13:58:33.951Z,100778.75
2023-03-29T14:01:18.313Z,100779.47
2023-03-29T14:03:54.798Z,100770.78
2023-03-29T14:06:32.752Z,100777.56
2023-03-29T14:09:09.917Z,100769.09
2023-03-29T14:11:48.430Z,100759.75
2023-03-29T14:14:26.830Z,100760.41
2023-03-29T14:17:01.397Z,100763.47
2023-03-29T14:19:39.841Z,100752.56
2023-03-29T14:22:18.088Z,100763.28
2023-03-29T14:24:56.964Z,100748.91
2023-03-29T14:27:37.047Z,100757.28
2023-03-29T14:30:29.649Z,100761.81
2023-03-29T14:33:05.154Z,100753.47
2023-03-29T14:35:37.560Z,100749.47
2023-03-29T14:38:16.417Z,100753.19
2023-03-29T14:40:49.505Z,100754.34
2023-03-29T14:43:27.635Z,100750.84
2023-03-29T14:46:03.413Z,100744.81
2023-03-29T14:48:35.924Z,100740.25
2023-03-29T14:51:07.712Z,100744.44
2023-03-29T14:53:41.591Z,100743.28
2023-03-29T14:56:18.240Z,100735.41
2023-03-29T14:58:54.564Z,100730.72
2023-03-29T15:01:30.197Z,100733.72
2023-03-29T15:04:09.618Z,100730.38
2023-03-29T15:06:46.797Z,100728.56
2023-03-29T15:09:27.082Z,100731.22
2023-03-29T15:12:02.856Z,100737.72
2023-03-29T15:14:38.040Z,100732.56
2023-03-29T15:17:47.033Z,100730.72
2023-03-29T15:20:28.335Z,100717.81
2023-03-29T15:23:21.373Z,100721.84
2023-03-29T15:25:58.319Z,100713.28
2023-03-29T15:28:34.026Z,100710.09
2023-03-29T15:31:11.853Z,100714.66
2023-03-29T15:33:46.037Z,100707.59
2023-03-29T15:36:18.676Z,100705.59
2023-03-29T15:38:53.656Z,100702.06
2023-03-29T15:41:26.489Z,100702.25
2023-03-29T15:44:00.874Z,100702.91
2023-03-29T15:46:32.900Z,100694.88
2023-03-29T15:49:06.283Z,100694.88
2023-03-29T15:51:38.254Z,100685.34
2023-03-29T15:54:11.058Z,100681.16
2023-03-29T15:56:52.819Z,100668.75
2023-03-29T15:59:24.795Z,100666.72
2023-03-29T16:01:58.113Z,100664.53
2023-03-29T16:04:31.333Z,100671.91
2023-03-29T16:07:03.274Z,100665.22
2023-03-29T16:09:35.488Z,100666.88
2023-03-29T16:12:09.086Z,100665.75
2023-03-29T16:14:43.242Z,100664.72
2023-03-29T16:17:15.859Z,100670.41
2023-03-29T16:19:48.882Z,100661.38
2023-03-29T16:22:20.754Z,100665.06
2023-03-29T16:24:53.998Z,100661.00
2023-03-29T16:27:25.911Z,100667.41
2023-03-29T16:29:59.611Z,100659.03
2023-03-29T16:32:31.261Z,100665.53
2023-03-29T16:35:05.108Z,100661.00
2023-03-29T16:37:36.682Z,100655.00
2023-03-29T16:40:12.377Z,100656.69
2023-03-29T16:42:44.381Z,100668.38
2023-03-29T16:45:17.945Z,100655.00
2023-03-29T16:47:49.816Z,100663.38
2023-03-29T16:50:24.302Z,100664.03
2023-03-29T16:52:56.310Z,100665.72
2023-03-29T16:55:28.396Z,100658.53
2023-03-29T16:58:00.311Z,100656.84
2023-03-29T17:00:33.183Z,100652.47
2023-03-29T17:03:05.309Z,100668.72
2023-03-29T17:05:41.386Z,100657.31
2023-03-29T17:08:13.405Z,100664.03
2023-03-29T17:10:46.353Z,100653.97
2023-03-29T17:13:18.238Z,100650.97
2023-03-29T17:15:52.119Z,100654.47
2023-03-29T17:18:26.159Z,100659.66
2023-03-29T17:21:03.033Z,100652.13
2023-03-29T17:23:35.313Z,100647.44
2023-03-29T17:26:08.452Z,100643.75
2023-03-29T17:28:40.266Z,100646.41
2023-03-29T17:31:12.527Z,100629.50
2023-03-29T17:33:44.388Z,100633.03
2023-03-29T17:36:19.165Z,100634.06
2023-03-29T17:38:50.873Z,100625.19
2023-03-29T17:41:22.858Z,100624.16
2023-03-29T17:43:54.836Z,100617.81
2023-03-29T17:46:26.822Z,100613.16
2023-03-29T17:48:59.093Z,100608.09
2023-03-29T17:51:32.731Z,100611.63
2023-03-29T17:54:04.776Z,100609.97
2023-03-29T17:56:36.640Z,100614.47
2023-03-29T17:59:08.503Z,100612.78
2023-03-29T18:01:40.699Z,100607.44
2023-03-29T18:04:12.400Z,100606.59
2023-03-29T18:06:46.031Z,100604.09
2023-03-29T18:09:18.186Z,100601.41
2023-03-29T18:11:50.242Z,100597.19
2023-03-29T18:14:22.107Z,100596.53
2023-03-29T18:16:54.074Z,100604.72
2023-03-29T18:19:25.875Z,100591.34
2023-03-29T18:21:59.348Z,100600.53
2023-03-29T18:24:31.218Z,100599.88
2023-03-29T18:27:03.085Z,100601.72
2023-03-29T18:29:34.946Z,100601.84
2023-03-29T18:32:07.057Z,100604.72
2023-03-29T18:34:39.571Z,100606.56
2023-03-29T18:37:15.073Z,100614.72
2023-03-29T18:39:47.906Z,100600.84
2023-03-29T18:42:21.860Z,100601.69
2023-03-29T18:44:53.649Z,100613.41
2023-03-29T18:47:25.597Z,100608.06
2023-03-29T18:49:57.713Z,100605.84
2023-03-29T18:52:30.952Z,100610.34
2023-03-29T18:55:02.922Z,100615.38
2023-03-29T18:57:34.576Z,100615.72
2023-03-29T19:00:11.853Z,100609.50
2023-03-29T19:02:43.992Z,100619.38
2023-03-29T19:05:16.065Z,100611.53
2023-03-29T19:07:49.398Z,100601.97
2023-03-29T19:10:21.201Z,100604.81
2023-03-29T19:12:53.285Z,100595.28
2023-03-29T19:15:25.214Z,100593.59
2023-03-29T19:17:57.230Z,100596.59
2023-03-29T19:20:29.920Z,100588.56
2023-03-29T19:23:03.554Z,100582.53
2023-03-29T19:25:36.446Z,100579.31
2023-03-29T19:28:08.642Z,100583.66
2023-03-29T19:30:41.228Z,100581.00
2023-03-29T19:33:14.382Z,100564.94
2023-03-29T19:35:46.654Z,100568.47
2023-03-29T19:38:19.944Z,100564.09
2023-03-29T19:40:52.732Z,100554.56
2023-03-29T19:43:25.098Z,100559.06
2023-03-29T19:45:56.682Z,100564.41
2023-03-29T19:48:28.606Z,100559.41
2023-03-29T19:51:04.938Z,100553.38
2023-03-29T19:53:39.014Z,100547.53
2023-03-29T19:56:13.153Z,100545.84
2023-03-29T19:58:45.002Z,100529.94
2023-03-29T20:01:20.872Z,100540.63
2023-03-29T20:03:54.142Z,100530.25
2023-03-29T20:06:26.249Z,100534.78
2023-03-29T20:08:59.358Z,100525.25
2023-03-29T20:11:31.176Z,100519.03
2023-03-29T20:14:03.027Z,100529.56
2023-03-29T20:16:35.061Z,100531.25
2023-03-29T20:19:07.584Z,100518.00
2023-03-29T20:21:39.261Z,100513.16
2023-03-29T20:24:13.640Z,100510.50
2023-03-29T20:26:45.467Z,100504.44
2023-03-29T20:29:17.877Z,100487.44
2023-03-29T20:31:50.067Z,100478.41
2023-03-29T20:34:22.010Z,100467.22
2023-03-29T20:36:55.189Z,100463.69
2023-03-29T20:39:29.557Z,100462.69
2023-03-29T20:42:01.545Z,100460.31
2023-03-29T20:44:35.251Z,100464.69
2023-03-29T20:47:07.999Z,100460.50
2023-03-29T20:49:42.103Z,100459.66
2023-03-29T20:52:18.075Z,100452.63
2023-03-29T20:54:52.214Z,100441.28
2023-03-29T20:57:25.065Z,100454.97
2023-03-29T20:59:56.967Z,100445.13
2023-03-29T21:02:28.899Z,100453.28
2023-03-29T21:05:02.216Z,100446.94
2023-03-29T21:07:34.676Z,100446.25
2023-03-29T21:10:08.699Z,100440.91
2023-03-29T21:12:41.022Z,100444.59
2023-03-29T21:15:14.472Z,100445.59
2023-03-29T21:17:46.483Z,100450.28
2023-03-29T21:20:18.783Z,100451.09
2023-03-29T21:22:50.448Z,100444.94
2023-03-29T21:25:23.859Z,100439.59
2023-03-29T21:27:55.813Z,100427.88
2023-03-29T21:30:29.473Z,100423.38
2023-03-29T21:33:02.643Z,100422.53
2023-03-29T21:35:35.554Z,100416.53
2023-03-29T21:38:07.402Z,100412.00
2023-03-29T21:40:42.012Z,100412.84
2023-03-29T21:43:13.917Z,100407.50
2023-03-29T21:45:48.656Z,100414.69
2023-03-29T21:48:20.642Z,100409.50
2023-03-29T21:50:53.991Z,100405.81
2023-03-29T21:53:26.985Z,100399.63
2023-03-29T21:56:00.299Z,100392.47
2023-03-29T21:58:31.986Z,100400.47
2023-03-29T22:01:07.323Z,100398.81
2023-03-29T22:03:40.262Z,100401.47
2023-03-29T22:06:15.606Z,100395.13
2023-03-29T22:08:50.193Z,100393.44
2023-03-29T22:11:25.609Z,100389.94
2023-03-29T22:13:58.309Z,100391.81
2023-03-29T22:16:31.332Z,100381.13
2023-03-29T22:19:03.788Z,100379.44
2023-03-29T22:21:37.508Z,100372.41
2023-03-29T22:24:10.720Z,100361.72
2023-03-29T22:26:45.369Z,100352.19
2023-03-29T22:29:17.294Z,100348.03
2023-03-29T22:31:49.163Z,100348.81
2023-03-29T22:34:21.039Z,100347.19
2023-03-29T22:36:52.948Z,100350.84
2023-03-29T22:39:24.760Z,100347.50
2023-03-29T22:41:57.740Z,100337.63
2023-03-29T22:44:29.658Z,100333.47
2023-03-29T22:47:01.544Z,100327.97
2023-03-29T22:49:33.422Z,100319.09
2023-03-29T22:52:05.123Z,100312.91
2023-03-29T22:54:37.024Z,100304.25
2023-03-29T22:57:10.345Z,100290.88
2023-03-29T22:59:42.246Z,100297.22
2023-03-29T23:02:14.102Z,100287.53
2023-03-29T23:04:46.270Z,100296.56
2023-03-29T23:07:17.889Z,100295.88
2023-03-29T23:09:50.485Z,100294.19
2023-03-29T23:12:25.076Z,100291.00
2023-03-29T23:14:56.774Z,100289.19
2023-03-29T23:17:28.491Z,100275.16
2023-03-29T23:20:00.371Z,100271.78
2023-03-29T23:22:32.074Z,100266.44
2023-03-29T23:25:04.377Z,100263.13
2023-03-29T23:27:38.222Z,100264.81
2023-03-29T23:30:13.171Z,100259.47
2023-03-29T23:32:45.023Z,100245.41
2023-03-29T23:35:17.291Z,100253.44
2023-03-29T23:37:50.143Z,100249.09
2023-03-29T23:40:22.071Z,100244.56
2023-03-29T23:42:59.335Z,100246.59
2023-03-29T23:45:31.718Z,100237.72
2023-03-29T23:48:03.826Z,100227.22
2023-03-29T23:50:35.611Z,100210.38
2023-03-29T23:53:07.503Z,100219.38
2023-03-29T23:55:39.394Z,100216.03
2023-03-29T23:58:12.440Z,100221.38
